createdAt,value
2022-10-23T00:04:19.540Z,85
2022-10-23T00:09:21.341Z,85
2022-10-23T00:14:23.513Z,85
2022-10-23T00:19:24.844Z,85
2022-10-23T00:24:26.047Z,85
2022-10-23T00:29:27.545Z,85
2022-10-23T00:34:28.710Z,85
2022-10-23T00:39:30.582Z,85
2022-10-23T00:44:32.769Z,85
2022-10-23T00:49:34.652Z,85
2022-10-23T00:54:36.210Z,85
2022-10-23T00:59:37.984Z,85
2022-10-23T01:04:39.305Z,85
2022-10-23T01:09:40.912Z,85
2022-10-23T01:14:42.875Z,85
2022-10-23T01:19:44.123Z,85
2022-10-23T01:24:46.214Z,85
2022-10-23T01:29:47.944Z,85
2022-10-23T01:34:49.165Z,85
2022-10-23T01:39:51.326Z,86
2022-10-23T01:44:53.379Z,86
2022-10-23T01:49:55.113Z,86
2022-10-23T01:54:57.238Z,86
2022-10-23T01:59:59.272Z,86
2022-10-23T02:05:01.359Z,86
2022-10-23T02:10:02.689Z,86
2022-10-23T02:15:04.576Z,86
2022-10-23T02:20:06.421Z,86
2022-10-23T02:25:08.012Z,86
2022-10-23T02:30:09.500Z,86
2022-10-23T02:35:11.602Z,86
2022-10-23T02:40:12.686Z,88
2022-10-23T02:45:14.004Z,88
2022-10-23T02:50:16.049Z,88
2022-10-23T02:55:17.524Z,88
2022-10-23T03:00:19.501Z,88
2022-10-23T03:05:21.081Z,87
2022-10-23T03:10:22.334Z,88
2022-10-23T03:15:24.384Z,88
2022-10-23T03:20:25.712Z,88
2022-10-23T03:25:27.688Z,88
2022-10-23T03:30:28.968Z,88
2022-10-23T03:35:31.109Z,87
2022-10-23T03:40:32.626Z,87
2022-10-23T03:45:34.431Z,87
2022-10-23T03:50:36.100Z,87
2022-10-23T03:55:38.248Z,87
2022-10-23T04:00:39.994Z,88
2022-10-23T04:05:41.786Z,86
2022-10-23T04:10:43.902Z,86
2022-10-23T04:15:45.617Z,87
2022-10-23T04:20:47.201Z,88
2022-10-23T04:25:49.164Z,89
2022-10-23T04:30:51.368Z,89
2022-10-23T04:35:52.814Z,90
2022-10-23T04:40:54.979Z,90
2022-10-23T04:45:57.110Z,90
2022-10-23T04:50:58.986Z,90
2022-10-23T04:56:00.917Z,90
2022-10-23T05:01:02.492Z,90
2022-10-23T05:06:03.510Z,91
2022-10-23T05:11:04.826Z,91
2022-10-23T05:16:06.364Z,91
2022-10-23T05:21:08.094Z,92
2022-10-23T05:26:09.776Z,91
2022-10-23T05:31:11.188Z,91
2022-10-23T05:36:12.481Z,92
2022-10-23T05:41:13.773Z,91
2022-10-23T05:46:15.627Z,91
2022-10-23T05:51:17.523Z,91
2022-10-23T05:56:19.304Z,91
2022-10-23T06:01:21.688Z,91
2022-10-23T06:06:22.913Z,91
2022-10-23T06:11:24.152Z,91
2022-10-23T06:16:25.659Z,90
2022-10-23T06:21:26.935Z,89
2022-10-23T06:26:28.831Z,89
2022-10-23T06:31:30.853Z,89
2022-10-23T06:36:32.860Z,89
2022-10-23T06:46:35.870Z,89
2022-10-23T07:16:46.370Z,82
2022-10-23T07:36:53.369Z,77
2022-10-23T07:41:54.682Z,74
2022-10-23T07:46:56.112Z,73
2022-10-23T07:51:57.705Z,71
2022-10-23T07:56:59.708Z,69
2022-10-23T08:02:01.898Z,69
2022-10-23T08:07:03.819Z,67
2022-10-23T08:12:05.274Z,63
2022-10-23T08:17:07.329Z,65
2022-10-23T08:22:09.393Z,63
2022-10-23T08:27:11.418Z,64
2022-10-23T08:32:13.349Z,61
2022-10-23T08:37:14.523Z,62
2022-10-23T08:42:16.361Z,60
2022-10-23T08:47:18.563Z,59
2022-10-23T08:52:19.689Z,59
2022-10-23T08:57:21.826Z,57
2022-10-23T09:02:23.470Z,57
2022-10-23T09:07:24.505Z,57
2022-10-23T09:07:30.834Z,57
2022-10-23T09:12:32.651Z,55
2022-10-23T09:17:34.382Z,53
2022-10-23T09:22:35.671Z,53
2022-10-23T09:27:36.886Z,50
2022-10-23T09:32:38.274Z,44
2022-10-23T09:37:40.470Z,44
2022-10-23T09:42:42.299Z,43
2022-10-23T09:47:44.527Z,41
2022-10-23T09:52:46.072Z,39
2022-10-23T09:57:48.155Z,39
2022-10-23T10:02:49.317Z,37
2022-10-23T10:07:50.742Z,36
2022-10-23T10:12:52.820Z,35
2022-10-23T10:17:54.116Z,33
2022-10-23T10:22:56.020Z,34
2022-10-23T10:27:57.802Z,32
2022-10-23T10:32:59.843Z,31
2022-10-23T10:38:01.725Z,31
2022-10-23T10:43:03.582Z,31
2022-10-23T10:48:05.160Z,31
2022-10-23T10:53:07.105Z,33
2022-10-23T10:58:09.198Z,34
2022-10-23T11:03:10.450Z,34
2022-10-23T11:08:12.571Z,36
2022-10-23T11:13:14.537Z,36
2022-10-23T11:18:16.049Z,38
2022-10-23T11:23:18.164Z,40
2022-10-23T11:28:19.606Z,41
2022-10-23T11:33:21.568Z,43
2022-10-23T11:38:23.178Z,43
2022-10-23T11:43:25.231Z,43
2022-10-23T11:48:26.810Z,46
2022-10-23T11:53:28.967Z,46
2022-10-23T11:58:30.758Z,47
2022-10-23T12:03:32.256Z,49
2022-10-23T12:08:33.378Z,52
2022-10-23T12:13:35.529Z,52
2022-10-23T12:18:36.734Z,53
2022-10-23T12:23:38.080Z,54
2022-10-23T12:28:40.103Z,54
2022-10-23T12:33:41.990Z,54
2022-10-23T12:38:43.886Z,55
2022-10-23T12:43:45.814Z,55
2022-10-23T12:48:47.948Z,55
2022-10-23T12:53:49.886Z,56
2022-10-23T12:58:51.339Z,55
2022-10-23T13:03:52.791Z,55
2022-10-23T13:08:54.801Z,56
2022-10-23T13:13:56.975Z,57
2022-10-23T13:18:58.128Z,58
2022-10-23T13:23:59.668Z,58
2022-10-23T13:29:03.781Z,59
2022-10-23T13:34:03.296Z,59
2022-10-23T13:39:04.898Z,60
2022-10-23T13:44:06.531Z,60
2022-10-23T13:49:08.408Z,60
2022-10-23T13:54:10.195Z,60
2022-10-23T13:59:11.738Z,61
2022-10-23T14:04:13.869Z,62
2022-10-23T14:09:15.102Z,62
2022-10-23T14:14:16.863Z,62
2022-10-23T14:19:18.085Z,63
2022-10-23T14:24:19.535Z,63
2022-10-23T14:29:24.248Z,64
2022-10-23T14:34:23.177Z,65
2022-10-23T14:39:24.572Z,66
2022-10-23T14:44:25.897Z,67
2022-10-23T14:49:27.186Z,67
2022-10-23T14:54:28.431Z,67
2022-10-23T14:59:30.162Z,68
2022-10-23T15:04:37.286Z,67
2022-10-23T15:09:33.519Z,68
2022-10-23T15:14:34.886Z,69
2022-10-23T15:19:36.934Z,70
2022-10-23T15:24:38.537Z,70
2022-10-23T15:29:40.478Z,70
2022-10-23T15:34:42.063Z,71
2022-10-23T15:39:44.155Z,71
2022-10-23T15:44:45.819Z,71
2022-10-23T15:49:47.813Z,72
2022-10-23T15:54:49.084Z,72
2022-10-23T15:59:50.240Z,73
2022-10-23T16:04:52.119Z,74
2022-10-23T16:09:54.258Z,74
2022-10-23T16:14:55.498Z,74
2022-10-23T16:19:56.829Z,74
2022-10-23T16:24:58.226Z,75
2022-10-23T16:29:59.639Z,75
2022-10-23T16:35:00.875Z,75
2022-10-23T16:40:02.905Z,76
2022-10-23T16:45:09.463Z,75
2022-10-23T16:50:06.405Z,76
2022-10-23T16:55:13.563Z,76
2022-10-23T17:00:15.297Z,76
2022-10-23T17:05:11.618Z,77
2022-10-23T17:10:13.158Z,77
2022-10-23T17:15:15.057Z,77
2022-10-23T17:20:16.539Z,77
2022-10-23T17:25:17.917Z,78
2022-10-23T17:30:19.973Z,77
2022-10-23T17:35:22.089Z,78
2022-10-23T17:40:25.121Z,78
2022-10-23T17:45:25.648Z,78
2022-10-23T17:50:27.233Z,79
2022-10-23T17:55:29.190Z,79
2022-10-23T18:00:30.995Z,80
2022-10-23T18:05:32.634Z,79
2022-10-23T18:10:33.993Z,81
2022-10-23T18:15:36.137Z,80
2022-10-23T18:20:42.921Z,81
2022-10-23T18:25:39.718Z,82
2022-10-23T18:30:41.011Z,81
2022-10-23T18:35:42.759Z,83
2022-10-23T18:40:44.394Z,83
2022-10-23T18:45:46.244Z,83
2022-10-23T18:50:48.366Z,83
2022-10-23T18:55:50.132Z,82
2022-10-23T19:00:52.194Z,82
2022-10-23T19:05:53.788Z,82
2022-10-23T19:10:55.207Z,82
2022-10-23T19:15:56.488Z,82
2022-10-23T19:20:58.292Z,82
2022-10-23T19:25:59.922Z,82
2022-10-23T19:31:01.625Z,82
2022-10-23T19:36:05.110Z,81
2022-10-23T19:41:05.529Z,81
2022-10-23T19:46:09.171Z,82
2022-10-23T19:51:09.755Z,82
2022-10-23T19:56:11.047Z,83
2022-10-23T20:01:13.455Z,83
2022-10-23T20:06:14.910Z,84
2022-10-23T20:11:21.271Z,83
2022-10-23T20:16:17.505Z,84
2022-10-23T20:21:19.612Z,84
2022-10-23T20:26:21.028Z,84
2022-10-23T20:31:22.967Z,84
2022-10-23T20:36:24.863Z,84
2022-10-23T20:41:26.172Z,84
2022-10-23T20:46:27.588Z,85
2022-10-23T20:51:29.707Z,85
2022-10-23T20:56:30.904Z,85
2022-10-23T21:01:32.764Z,85
2022-10-23T21:11:36.289Z,87
2022-10-23T21:21:39.517Z,87
2022-10-23T21:37:07.453Z,87
2022-10-23T21:41:46.073Z,87
2022-10-23T21:46:47.528Z,86
2022-10-23T21:51:49.588Z,87
2022-10-23T21:56:51.658Z,88
2022-10-23T22:27:00.944Z,87
2022-10-23T22:32:02.831Z,86
2022-10-23T22:37:04.094Z,86
2022-10-23T22:42:06.044Z,86
2022-10-23T22:47:07.391Z,84
2022-10-23T22:52:09.218Z,83
2022-10-23T22:57:11.396Z,82
2022-10-23T23:02:13.445Z,81
2022-10-23T23:07:15.556Z,80
2022-10-23T23:12:17.164Z,80
2022-10-23T23:17:19.241Z,79
2022-10-23T23:22:20.771Z,78
2022-10-23T23:27:22.239Z,77
2022-10-23T23:32:24.461Z,77
2022-10-23T23:37:25.648Z,76
2022-10-23T23:42:27.251Z,75
2022-10-23T23:47:29.418Z,74
2022-10-23T23:52:30.644Z,73
2022-10-23T23:57:32.427Z,73
